sensor_id;sensor_type;location;lat;lon;timestamp;P1;durP1;ratioP1;P2;durP2;ratioP2
25758;SDS011;13604;52.496;13.456;2022-08-25T00:01:34;12.20;;;8.93;;
25758;SDS011;13604;52.496;13.456;2022-08-25T00:04:03;10.52;;;8.32;;
25758;SDS011;13604;52.496;13.456;2022-08-25T00:06:30;16.15;;;9.57;;
25758;SDS011;13604;52.496;13.456;2022-08-25T00:08:56;14.23;;;7.90;;
25758;SDS011;13604;52.496;13.456;2022-08-25T00:11:25;13.93;;;7.68;;
25758;SDS011;13604;52.496;13.456;2022-08-25T00:13:53;15.27;;;8.52;;
25758;SDS011;13604;52.496;13.456;2022-08-25T00:16:21;14.85;;;8.48;;
25758;SDS011;13604;52.496;13.456;2022-08-25T00:18:48;12.75;;;8.40;;
25758;SDS011;13604;52.496;13.456;2022-08-25T00:21:17;11.05;;;7.47;;
25758;SDS011;13604;52.496;13.456;2022-08-25T00:23:43;14.98;;;8.65;;
25758;SDS011;13604;52.496;13.456;2022-08-25T00:26:09;16.98;;;8.90;;
25758;SDS011;13604;52.496;13.456;2022-08-25T00:28:35;12.25;;;8.18;;
25758;SDS011;13604;52.496;13.456;2022-08-25T00:31:02;12.48;;;8.93;;
25758;SDS011;13604;52.496;13.456;2022-08-25T00:33:28;12.90;;;7.97;;
25758;SDS011;13604;52.496;13.456;2022-08-25T00:35:57;13.80;;;8.10;;
25758;SDS011;13604;52.496;13.456;2022-08-25T00:38:23;11.70;;;8.07;;
25758;SDS011;13604;52.496;13.456;2022-08-25T00:40:49;10.02;;;7.80;;
25758;SDS011;13604;52.496;13.456;2022-08-25T00:43:34;12.63;;;8.77;;
25758;SDS011;13604;52.496;13.456;2022-08-25T00:46:00;9.73;;;7.57;;
25758;SDS011;13604;52.496;13.456;2022-08-25T00:48:26;10.00;;;8.50;;
25758;SDS011;13604;52.496;13.456;2022-08-25T00:50:52;14.80;;;8.70;;
25758;SDS011;13604;52.496;13.456;2022-08-25T00:53:17;15.40;;;8.15;;
25758;SDS011;13604;52.496;13.456;2022-08-25T00:55:42;12.55;;;8.45;;
25758;SDS011;13604;52.496;13.456;2022-08-25T00:58:10;12.88;;;9.25;;
25758;SDS011;13604;52.496;13.456;2022-08-25T01:00:42;11.07;;;8.10;;
25758;SDS011;13604;52.496;13.456;2022-08-25T01:03:09;13.85;;;8.80;;
25758;SDS011;13604;52.496;13.456;2022-08-25T01:05:35;15.15;;;8.88;;
25758;SDS011;13604;52.496;13.456;2022-08-25T01:08:01;12.05;;;8.88;;
25758;SDS011;13604;52.496;13.456;2022-08-25T01:10:28;14.60;;;9.38;;
25758;SDS011;13604;52.496;13.456;2022-08-25T01:12:57;12.95;;;8.85;;
25758;SDS011;13604;52.496;13.456;2022-08-25T01:15:26;15.13;;;9.15;;
25758;SDS011;13604;52.496;13.456;2022-08-25T01:17:53;13.20;;;9.00;;
25758;SDS011;13604;52.496;13.456;2022-08-25T01:20:22;17.65;;;9.85;;
25758;SDS011;13604;52.496;13.456;2022-08-25T01:22:49;18.88;;;9.45;;
25758;SDS011;13604;52.496;13.456;2022-08-25T01:25:50;16.33;;;9.63;;
25758;SDS011;13604;52.496;13.456;2022-08-25T01:28:12;19.40;;;9.88;;
25758;SDS011;13604;52.496;13.456;2022-08-25T01:30:37;13.73;;;9.52;;
25758;SDS011;13604;52.496;13.456;2022-08-25T01:33:07;12.68;;;10.00;;
25758;SDS011;13604;52.496;13.456;2022-08-25T01:35:34;13.05;;;9.38;;
25758;SDS011;13604;52.496;13.456;2022-08-25T01:38:00;17.35;;;9.95;;
25758;SDS011;13604;52.496;13.456;2022-08-25T01:40:27;15.40;;;10.05;;
25758;SDS011;13604;52.496;13.456;2022-08-25T01:45:30;14.93;;;9.73;;
25758;SDS011;13604;52.496;13.456;2022-08-25T01:47:56;17.30;;;10.13;;
25758;SDS011;13604;52.496;13.456;2022-08-25T01:50:22;15.38;;;10.15;;
25758;SDS011;13604;52.496;13.456;2022-08-25T01:52:53;16.25;;;10.30;;
25758;SDS011;13604;52.496;13.456;2022-08-25T01:55:22;17.25;;;10.13;;
25758;SDS011;13604;52.496;13.456;2022-08-25T01:57:48;10.85;;;9.15;;
25758;SDS011;13604;52.496;13.456;2022-08-25T02:00:14;15.48;;;10.27;;
25758;SDS011;13604;52.496;13.456;2022-08-25T02:02:40;14.00;;;10.13;;
25758;SDS011;13604;52.496;13.456;2022-08-25T02:05:06;16.67;;;10.60;;
25758;SDS011;13604;52.496;13.456;2022-08-25T02:07:33;20.30;;;10.00;;
25758;SDS011;13604;52.496;13.456;2022-08-25T02:09:59;15.15;;;9.77;;
25758;SDS011;13604;52.496;13.456;2022-08-25T02:12:26;12.52;;;9.98;;
25758;SDS011;13604;52.496;13.456;2022-08-25T02:14:51;14.50;;;9.70;;
25758;SDS011;13604;52.496;13.456;2022-08-25T02:17:16;14.23;;;11.30;;
25758;SDS011;13604;52.496;13.456;2022-08-25T02:19:42;15.27;;;10.88;;
25758;SDS011;13604;52.496;13.456;2022-08-25T02:22:07;12.25;;;9.63;;
25758;SDS011;13604;52.496;13.456;2022-08-25T02:24:33;13.55;;;10.10;;
25758;SDS011;13604;52.496;13.456;2022-08-25T02:26:58;16.90;;;10.85;;
25758;SDS011;13604;52.496;13.456;2022-08-25T02:29:24;17.15;;;10.93;;
25758;SDS011;13604;52.496;13.456;2022-08-25T02:31:49;15.48;;;10.57;;
25758;SDS011;13604;52.496;13.456;2022-08-25T02:34:14;17.02;;;10.63;;
25758;SDS011;13604;52.496;13.456;2022-08-25T02:36:40;16.73;;;10.57;;
25758;SDS011;13604;52.496;13.456;2022-08-25T02:39:07;15.25;;;10.98;;
25758;SDS011;13604;52.496;13.456;2022-08-25T02:41:33;17.98;;;10.32;;
25758;SDS011;13604;52.496;13.456;2022-08-25T02:43:59;17.10;;;11.43;;
25758;SDS011;13604;52.496;13.456;2022-08-25T02:46:26;17.75;;;11.27;;
25758;SDS011;13604;52.496;13.456;2022-08-25T02:48:53;17.15;;;11.38;;
25758;SDS011;13604;52.496;13.456;2022-08-25T02:51:20;21.00;;;12.45;;
25758;SDS011;13604;52.496;13.456;2022-08-25T02:53:47;17.27;;;12.23;;
25758;SDS011;13604;52.496;13.456;2022-08-25T02:56:14;20.63;;;12.13;;
25758;SDS011;13604;52.496;13.456;2022-08-25T02:58:41;16.75;;;11.40;;
25758;SDS011;13604;52.496;13.456;2022-08-25T03:01:06;16.45;;;11.20;;
25758;SDS011;13604;52.496;13.456;2022-08-25T03:03:36;20.33;;;11.68;;
25758;SDS011;13604;52.496;13.456;2022-08-25T03:06:02;20.25;;;12.25;;
25758;SDS011;13604;52.496;13.456;2022-08-25T03:08:27;16.35;;;12.00;;
25758;SDS011;13604;52.496;13.456;2022-08-25T03:10:52;20.50;;;13.43;;
25758;SDS011;13604;52.496;13.456;2022-08-25T03:13:18;16.05;;;11.73;;
25758;SDS011;13604;52.496;13.456;2022-08-25T03:15:43;19.50;;;12.63;;
25758;SDS011;13604;52.496;13.456;2022-08-25T03:18:09;16.25;;;13.23;;
25758;SDS011;13604;52.496;13.456;2022-08-25T03:20:35;20.27;;;12.70;;
25758;SDS011;13604;52.496;13.456;2022-08-25T03:23:02;18.85;;;12.93;;
25758;SDS011;13604;52.496;13.456;2022-08-25T03:25:28;19.58;;;13.13;;
25758;SDS011;13604;52.496;13.456;2022-08-25T03:28:12;19.38;;;13.15;;
25758;SDS011;13604;52.496;13.456;2022-08-25T03:30:38;23.88;;;13.80;;
25758;SDS011;13604;52.496;13.456;2022-08-25T03:33:04;18.33;;;12.80;;
25758;SDS011;13604;52.496;13.456;2022-08-25T03:35:29;21.65;;;13.30;;
25758;SDS011;13604;52.496;13.456;2022-08-25T03:37:55;19.52;;;12.02;;
25758;SDS011;13604;52.496;13.456;2022-08-25T03:40:22;20.10;;;12.82;;
25758;SDS011;13604;52.496;13.456;2022-08-25T03:42:47;19.98;;;12.55;;
25758;SDS011;13604;52.496;13.456;2022-08-25T03:45:13;20.13;;;13.77;;
25758;SDS011;13604;52.496;13.456;2022-08-25T03:47:40;26.92;;;14.65;;
25758;SDS011;13604;52.496;13.456;2022-08-25T03:50:07;19.15;;;12.80;;
25758;SDS011;13604;52.496;13.456;2022-08-25T03:52:35;19.88;;;13.32;;
25758;SDS011;13604;52.496;13.456;2022-08-25T03:55:01;19.90;;;13.07;;
25758;SDS011;13604;52.496;13.456;2022-08-25T03:57:28;20.08;;;13.10;;
25758;SDS011;13604;52.496;13.456;2022-08-25T03:59:53;16.30;;;11.98;;
25758;SDS011;13604;52.496;13.456;2022-08-25T04:02:19;24.85;;;13.30;;
25758;SDS011;13604;52.496;13.456;2022-08-25T04:04:44;22.73;;;13.35;;
25758;SDS011;13604;52.496;13.456;2022-08-25T04:07:10;20.20;;;14.18;;
25758;SDS011;13604;52.496;13.456;2022-08-25T04:09:35;26.35;;;14.63;;
25758;SDS011;13604;52.496;13.456;2022-08-25T04:12:00;23.35;;;14.48;;
25758;SDS011;13604;52.496;13.456;2022-08-25T04:14:25;24.40;;;14.65;;
25758;SDS011;13604;52.496;13.456;2022-08-25T04:16:51;21.95;;;14.60;;
25758;SDS011;13604;52.496;13.456;2022-08-25T04:19:17;21.95;;;13.75;;
25758;SDS011;13604;52.496;13.456;2022-08-25T04:21:42;21.88;;;14.52;;
25758;SDS011;13604;52.496;13.456;2022-08-25T04:24:08;20.85;;;14.40;;
25758;SDS011;13604;52.496;13.456;2022-08-25T04:26:40;23.58;;;16.52;;
25758;SDS011;13604;52.496;13.456;2022-08-25T04:29:09;36.35;;;17.27;;
25758;SDS011;13604;52.496;13.456;2022-08-25T04:31:35;24.17;;;16.52;;
25758;SDS011;13604;52.496;13.456;2022-08-25T04:34:04;25.10;;;16.13;;
25758;SDS011;13604;52.496;13.456;2022-08-25T04:36:29;29.48;;;18.10;;
25758;SDS011;13604;52.496;13.456;2022-08-25T04:38:56;30.05;;;19.00;;
25758;SDS011;13604;52.496;13.456;2022-08-25T04:41:22;26.08;;;17.58;;
25758;SDS011;13604;52.496;13.456;2022-08-25T04:43:49;31.30;;;18.77;;
25758;SDS011;13604;52.496;13.456;2022-08-25T04:46:16;29.10;;;18.23;;
25758;SDS011;13604;52.496;13.456;2022-08-25T04:48:50;33.60;;;20.60;;
25758;SDS011;13604;52.496;13.456;2022-08-25T04:51:18;25.23;;;18.25;;
25758;SDS011;13604;52.496;13.456;2022-08-25T04:53:45;29.85;;;19.08;;
25758;SDS011;13604;52.496;13.456;2022-08-25T04:56:13;27.73;;;20.45;;
25758;SDS011;13604;52.496;13.456;2022-08-25T04:58:40;31.33;;;19.67;;
25758;SDS011;13604;52.496;13.456;2022-08-25T05:01:06;31.27;;;19.75;;
25758;SDS011;13604;52.496;13.456;2022-08-25T05:03:33;27.42;;;18.92;;
25758;SDS011;13604;52.496;13.456;2022-08-25T05:05:59;29.15;;;19.65;;
25758;SDS011;13604;52.496;13.456;2022-08-25T05:08:25;26.67;;;18.02;;
25758;SDS011;13604;52.496;13.456;2022-08-25T05:10:50;26.48;;;16.98;;
25758;SDS011;13604;52.496;13.456;2022-08-25T05:13:18;27.20;;;17.90;;
25758;SDS011;13604;52.496;13.456;2022-08-25T05:15:50;25.33;;;17.27;;
25758;SDS011;13604;52.496;13.456;2022-08-25T05:18:19;31.75;;;19.02;;
25758;SDS011;13604;52.496;13.456;2022-08-25T05:20:46;32.15;;;18.48;;
25758;SDS011;13604;52.496;13.456;2022-08-25T05:23:12;27.30;;;18.30;;
25758;SDS011;13604;52.496;13.456;2022-08-25T05:25:37;25.15;;;17.90;;
25758;SDS011;13604;52.496;13.456;2022-08-25T05:28:03;29.67;;;19.60;;
25758;SDS011;13604;52.496;13.456;2022-08-25T05:30:28;32.20;;;20.17;;
25758;SDS011;13604;52.496;13.456;2022-08-25T05:32:54;27.27;;;20.02;;
25758;SDS011;13604;52.496;13.456;2022-08-25T05:35:19;31.80;;;20.70;;
25758;SDS011;13604;52.496;13.456;2022-08-25T05:37:45;39.08;;;21.65;;
25758;SDS011;13604;52.496;13.456;2022-08-25T05:40:11;31.65;;;19.75;;
25758;SDS011;13604;52.496;13.456;2022-08-25T05:42:37;36.50;;;21.02;;
25758;SDS011;13604;52.496;13.456;2022-08-25T05:45:03;28.33;;;19.23;;
25758;SDS011;13604;52.496;13.456;2022-08-25T05:47:30;28.25;;;18.00;;
25758;SDS011;13604;52.496;13.456;2022-08-25T05:49:55;28.10;;;19.27;;
25758;SDS011;13604;52.496;13.456;2022-08-25T05:52:20;35.00;;;18.10;;
25758;SDS011;13604;52.496;13.456;2022-08-25T05:54:46;24.73;;;16.92;;
25758;SDS011;13604;52.496;13.456;2022-08-25T05:57:11;23.10;;;15.68;;
25758;SDS011;13604;52.496;13.456;2022-08-25T05:59:36;25.45;;;16.30;;
25758;SDS011;13604;52.496;13.456;2022-08-25T06:02:02;25.42;;;15.32;;
25758;SDS011;13604;52.496;13.456;2022-08-25T06:04:45;34.00;;;19.48;;
25758;SDS011;13604;52.496;13.456;2022-08-25T06:07:11;24.10;;;16.70;;
25758;SDS011;13604;52.496;13.456;2022-08-25T06:09:37;23.45;;;16.85;;
25758;SDS011;13604;52.496;13.456;2022-08-25T06:12:03;30.02;;;18.83;;
25758;SDS011;13604;52.496;13.456;2022-08-25T06:14:29;31.98;;;19.25;;
25758;SDS011;13604;52.496;13.456;2022-08-25T06:16:54;35.15;;;20.40;;
25758;SDS011;13604;52.496;13.456;2022-08-25T06:19:20;32.13;;;20.58;;
25758;SDS011;13604;52.496;13.456;2022-08-25T06:21:47;30.05;;;18.75;;
25758;SDS011;13604;52.496;13.456;2022-08-25T06:24:13;31.15;;;19.85;;
25758;SDS011;13604;52.496;13.456;2022-08-25T06:26:38;29.50;;;17.95;;
25758;SDS011;13604;52.496;13.456;2022-08-25T06:29:03;32.42;;;19.42;;
25758;SDS011;13604;52.496;13.456;2022-08-25T06:31:28;29.77;;;18.15;;
25758;SDS011;13604;52.496;13.456;2022-08-25T06:33:54;27.40;;;18.83;;
25758;SDS011;13604;52.496;13.456;2022-08-25T06:36:19;27.40;;;18.35;;
25758;SDS011;13604;52.496;13.456;2022-08-25T06:38:45;29.85;;;17.15;;
25758;SDS011;13604;52.496;13.456;2022-08-25T06:41:11;29.17;;;19.08;;
25758;SDS011;13604;52.496;13.456;2022-08-25T06:43:38;26.40;;;18.83;;
25758;SDS011;13604;52.496;13.456;2022-08-25T06:46:12;34.55;;;17.92;;
25758;SDS011;13604;52.496;13.456;2022-08-25T06:48:39;24.95;;;15.93;;
25758;SDS011;13604;52.496;13.456;2022-08-25T06:51:09;25.13;;;14.75;;
25758;SDS011;13604;52.496;13.456;2022-08-25T06:53:36;25.45;;;17.05;;
25758;SDS011;13604;52.496;13.456;2022-08-25T06:56:02;25.42;;;16.42;;
25758;SDS011;13604;52.496;13.456;2022-08-25T06:58:28;22.48;;;15.35;;
25758;SDS011;13604;52.496;13.456;2022-08-25T07:00:54;22.27;;;15.50;;
25758;SDS011;13604;52.496;13.456;2022-08-25T07:03:19;29.77;;;17.40;;
25758;SDS011;13604;52.496;13.456;2022-08-25T07:05:51;28.58;;;17.60;;
25758;SDS011;13604;52.496;13.456;2022-08-25T07:08:17;23.13;;;16.52;;
25758;SDS011;13604;52.496;13.456;2022-08-25T07:10:43;22.67;;;16.45;;
25758;SDS011;13604;52.496;13.456;2022-08-25T07:13:08;27.35;;;17.88;;
25758;SDS011;13604;52.496;13.456;2022-08-25T07:15:37;26.25;;;15.25;;
25758;SDS011;13604;52.496;13.456;2022-08-25T07:18:03;26.02;;;16.08;;
25758;SDS011;13604;52.496;13.456;2022-08-25T07:20:28;29.50;;;18.27;;
25758;SDS011;13604;52.496;13.456;2022-08-25T07:22:55;23.10;;;15.20;;
25758;SDS011;13604;52.496;13.456;2022-08-25T07:25:20;31.30;;;18.17;;
25758;SDS011;13604;52.496;13.456;2022-08-25T07:27:46;21.08;;;15.05;;
25758;SDS011;13604;52.496;13.456;2022-08-25T07:30:11;31.65;;;17.83;;
25758;SDS011;13604;52.496;13.456;2022-08-25T07:32:36;29.02;;;18.30;;
25758;SDS011;13604;52.496;13.456;2022-08-25T07:35:02;29.48;;;17.05;;
25758;SDS011;13604;52.496;13.456;2022-08-25T07:37:49;29.00;;;17.83;;
25758;SDS011;13604;52.496;13.456;2022-08-25T07:40:17;28.17;;;16.75;;
25758;SDS011;13604;52.496;13.456;2022-08-25T07:45:16;35.28;;;19.60;;
25758;SDS011;13604;52.496;13.456;2022-08-25T07:47:42;31.90;;;16.27;;
25758;SDS011;13604;52.496;13.456;2022-08-25T07:50:09;31.10;;;16.35;;
25758;SDS011;13604;52.496;13.456;2022-08-25T07:52:36;29.73;;;17.92;;
25758;SDS011;13604;52.496;13.456;2022-08-25T07:55:02;36.70;;;20.25;;
25758;SDS011;13604;52.496;13.456;2022-08-25T07:57:28;35.72;;;18.90;;
25758;SDS011;13604;52.496;13.456;2022-08-25T07:59:53;38.10;;;19.60;;
25758;SDS011;13604;52.496;13.456;2022-08-25T08:02:19;33.58;;;20.08;;
25758;SDS011;13604;52.496;13.456;2022-08-25T08:04:48;30.38;;;19.70;;
25758;SDS011;13604;52.496;13.456;2022-08-25T08:07:19;36.83;;;20.70;;
25758;SDS011;13604;52.496;13.456;2022-08-25T08:09:47;34.83;;;18.80;;
25758;SDS011;13604;52.496;13.456;2022-08-25T08:12:12;37.83;;;19.83;;
25758;SDS011;13604;52.496;13.456;2022-08-25T08:14:37;33.85;;;19.92;;
25758;SDS011;13604;52.496;13.456;2022-08-25T08:17:06;30.83;;;18.08;;
25758;SDS011;13604;52.496;13.456;2022-08-25T08:19:33;30.77;;;19.75;;
25758;SDS011;13604;52.496;13.456;2022-08-25T08:21:59;35.78;;;17.67;;
25758;SDS011;13604;52.496;13.456;2022-08-25T08:24:24;32.10;;;17.92;;
25758;SDS011;13604;52.496;13.456;2022-08-25T08:26:50;31.83;;;19.27;;
25758;SDS011;13604;52.496;13.456;2022-08-25T08:29:15;29.60;;;18.60;;
25758;SDS011;13604;52.496;13.456;2022-08-25T08:31:40;24.88;;;15.80;;
25758;SDS011;13604;52.496;13.456;2022-08-25T08:34:06;33.58;;;19.80;;
25758;SDS011;13604;52.496;13.456;2022-08-25T08:36:31;30.73;;;19.05;;
25758;SDS011;13604;52.496;13.456;2022-08-25T08:38:57;41.13;;;20.35;;
25758;SDS011;13604;52.496;13.456;2022-08-25T08:44:45;28.52;;;16.02;;
25758;SDS011;13604;52.496;13.456;2022-08-25T08:47:42;26.55;;;16.10;;
25758;SDS011;13604;52.496;13.456;2022-08-25T08:53:02;21.40;;;12.13;;
25758;SDS011;13604;52.496;13.456;2022-08-25T08:55:34;22.05;;;13.45;;
25758;SDS011;13604;52.496;13.456;2022-08-25T08:58:05;24.27;;;12.40;;
25758;SDS011;13604;52.496;13.456;2022-08-25T09:00:36;22.67;;;12.02;;
25758;SDS011;13604;52.496;13.456;2022-08-25T09:03:06;22.33;;;11.20;;
25758;SDS011;13604;52.496;13.456;2022-08-25T09:05:47;16.90;;;10.57;;
25758;SDS011;13604;52.496;13.456;2022-08-25T09:08:15;15.23;;;10.70;;
25758;SDS011;13604;52.496;13.456;2022-08-25T09:10:52;17.40;;;10.50;;
25758;SDS011;13604;52.496;13.456;2022-08-25T09:16:19;21.58;;;10.73;;
25758;SDS011;13604;52.496;13.456;2022-08-25T09:19:32;19.80;;;11.45;;
25758;SDS011;13604;52.496;13.456;2022-08-25T09:25:16;14.35;;;10.30;;
25758;SDS011;13604;52.496;13.456;2022-08-25T09:30:19;13.10;;;8.73;;
25758;SDS011;13604;52.496;13.456;2022-08-25T09:32:46;12.10;;;9.80;;
25758;SDS011;13604;52.496;13.456;2022-08-25T09:35:22;12.98;;;8.70;;
25758;SDS011;13604;52.496;13.456;2022-08-25T09:40:31;14.23;;;8.40;;
25758;SDS011;13604;52.496;13.456;2022-08-25T09:43:08;15.20;;;9.32;;
25758;SDS011;13604;52.496;13.456;2022-08-25T09:45:48;12.10;;;7.95;;
25758;SDS011;13604;52.496;13.456;2022-08-25T09:48:23;12.30;;;8.05;;
25758;SDS011;13604;52.496;13.456;2022-08-25T09:50:49;11.15;;;7.32;;
25758;SDS011;13604;52.496;13.456;2022-08-25T09:53:16;12.07;;;7.72;;
25758;SDS011;13604;52.496;13.456;2022-08-25T09:55:43;12.85;;;7.65;;
25758;SDS011;13604;52.496;13.456;2022-08-25T09:58:19;13.63;;;6.28;;
25758;SDS011;13604;52.496;13.456;2022-08-25T10:04:01;10.57;;;6.78;;
25758;SDS011;13604;52.496;13.456;2022-08-25T10:06:34;9.02;;;5.47;;
25758;SDS011;13604;52.496;13.456;2022-08-25T10:09:06;13.77;;;6.10;;
25758;SDS011;13604;52.496;13.456;2022-08-25T10:14:11;12.20;;;7.07;;
25758;SDS011;13604;52.496;13.456;2022-08-25T10:16:41;9.30;;;6.75;;
25758;SDS011;13604;52.496;13.456;2022-08-25T10:19:11;10.48;;;6.20;;
25758;SDS011;13604;52.496;13.456;2022-08-25T10:22:40;8.27;;;6.00;;
25758;SDS011;13604;52.496;13.456;2022-08-25T10:24:48;7.35;;;5.47;;
25758;SDS011;13604;52.496;13.456;2022-08-25T10:27:38;13.57;;;5.72;;
25758;SDS011;13604;52.496;13.456;2022-08-25T10:30:07;13.68;;;6.57;;
25758;SDS011;13604;52.496;13.456;2022-08-25T10:32:49;10.30;;;5.82;;
25758;SDS011;13604;52.496;13.456;2022-08-25T10:35:33;12.68;;;5.93;;
25758;SDS011;13604;52.496;13.456;2022-08-25T10:38:14;11.90;;;6.47;;
25758;SDS011;13604;52.496;13.456;2022-08-25T10:40:54;9.93;;;5.60;;
25758;SDS011;13604;52.496;13.456;2022-08-25T10:43:34;10.18;;;5.97;;
25758;SDS011;13604;52.496;13.456;2022-08-25T10:46:24;8.10;;;5.95;;
25758;SDS011;13604;52.496;13.456;2022-08-25T10:49:09;7.70;;;5.57;;
25758;SDS011;13604;52.496;13.456;2022-08-25T10:52:07;11.60;;;5.35;;
25758;SDS011;13604;52.496;13.456;2022-08-25T10:57:23;9.40;;;4.53;;
25758;SDS011;13604;52.496;13.456;2022-08-25T11:00:04;11.07;;;4.60;;
25758;SDS011;13604;52.496;13.456;2022-08-25T11:02:42;12.23;;;5.57;;
25758;SDS011;13604;52.496;13.456;2022-08-25T11:05:31;13.73;;;5.37;;
25758;SDS011;13604;52.496;13.456;2022-08-25T11:08:09;10.85;;;5.20;;
25758;SDS011;13604;52.496;13.456;2022-08-25T11:10:41;14.70;;;5.32;;
25758;SDS011;13604;52.496;13.456;2022-08-25T11:13:18;13.63;;;5.10;;
25758;SDS011;13604;52.496;13.456;2022-08-25T11:15:53;10.48;;;5.00;;
25758;SDS011;13604;52.496;13.456;2022-08-25T11:18:24;12.02;;;5.65;;
25758;SDS011;13604;52.496;13.456;2022-08-25T11:21:12;9.70;;;5.28;;
25758;SDS011;13604;52.496;13.456;2022-08-25T11:23:57;16.42;;;5.47;;
25758;SDS011;13604;52.496;13.456;2022-08-25T11:26:33;12.77;;;5.10;;
25758;SDS011;13604;52.496;13.456;2022-08-25T11:29:03;7.15;;;4.20;;
25758;SDS011;13604;52.496;13.456;2022-08-25T11:31:40;17.00;;;6.15;;
25758;SDS011;13604;52.496;13.456;2022-08-25T11:34:09;10.00;;;4.93;;
25758;SDS011;13604;52.496;13.456;2022-08-25T11:36:38;7.47;;;4.72;;
25758;SDS011;13604;52.496;13.456;2022-08-25T11:47:37;20.42;;;6.00;;
25758;SDS011;13604;52.496;13.456;2022-08-25T11:52:59;10.10;;;5.88;;
25758;SDS011;13604;52.496;13.456;2022-08-25T11:55:45;17.15;;;5.95;;
25758;SDS011;13604;52.496;13.456;2022-08-25T11:58:28;9.63;;;5.10;;
25758;SDS011;13604;52.496;13.456;2022-08-25T12:00:58;7.95;;;4.75;;
25758;SDS011;13604;52.496;13.456;2022-08-25T12:11:41;9.43;;;5.18;;
25758;SDS011;13604;52.496;13.456;2022-08-25T12:16:39;9.60;;;5.22;;
25758;SDS011;13604;52.496;13.456;2022-08-25T12:19:27;18.58;;;5.72;;
25758;SDS011;13604;52.496;13.456;2022-08-25T12:27:22;8.63;;;4.72;;
25758;SDS011;13604;52.496;13.456;2022-08-25T12:30:03;10.15;;;4.60;;
25758;SDS011;13604;52.496;13.456;2022-08-25T12:32:49;13.18;;;4.88;;
25758;SDS011;13604;52.496;13.456;2022-08-25T12:35:25;10.70;;;4.30;;
25758;SDS011;13604;52.496;13.456;2022-08-25T12:37:57;12.13;;;4.20;;
25758;SDS011;13604;52.496;13.456;2022-08-25T12:40:52;10.20;;;4.13;;
25758;SDS011;13604;52.496;13.456;2022-08-25T12:43:25;10.35;;;4.63;;
25758;SDS011;13604;52.496;13.456;2022-08-25T12:48:58;13.48;;;4.88;;
25758;SDS011;13604;52.496;13.456;2022-08-25T12:54:44;11.43;;;5.03;;
25758;SDS011;13604;52.496;13.456;2022-08-25T12:57:01;19.50;;;5.65;;
25758;SDS011;13604;52.496;13.456;2022-08-25T12:59:38;17.98;;;4.72;;
25758;SDS011;13604;52.496;13.456;2022-08-25T13:05:15;10.05;;;4.20;;
25758;SDS011;13604;52.496;13.456;2022-08-25T13:08:13;17.98;;;5.10;;
25758;SDS011;13604;52.496;13.456;2022-08-25T13:16:26;10.45;;;4.45;;
25758;SDS011;13604;52.496;13.456;2022-08-25T13:18:52;10.52;;;4.68;;
25758;SDS011;13604;52.496;13.456;2022-08-25T13:21:39;15.85;;;4.53;;
25758;SDS011;13604;52.496;13.456;2022-08-25T13:24:25;10.95;;;4.20;;
25758;SDS011;13604;52.496;13.456;2022-08-25T13:26:58;9.88;;;4.10;;
25758;SDS011;13604;52.496;13.456;2022-08-25T13:29:26;13.35;;;4.38;;
25758;SDS011;13604;52.496;13.456;2022-08-25T13:31:56;15.98;;;4.63;;
25758;SDS011;13604;52.496;13.456;2022-08-25T13:34:27;10.88;;;4.50;;
25758;SDS011;13604;52.496;13.456;2022-08-25T13:36:56;17.48;;;5.28;;
25758;SDS011;13604;52.496;13.456;2022-08-25T13:39:47;13.50;;;4.10;;
25758;SDS011;13604;52.496;13.456;2022-08-25T13:42:13;9.87;;;4.60;;
25758;SDS011;13604;52.496;13.456;2022-08-25T13:44:40;12.30;;;4.88;;
25758;SDS011;13604;52.496;13.456;2022-08-25T13:47:10;7.43;;;4.30;;
25758;SDS011;13604;52.496;13.456;2022-08-25T13:49:45;11.77;;;4.90;;
25758;SDS011;13604;52.496;13.456;2022-08-25T13:52:24;12.65;;;4.47;;
25758;SDS011;13604;52.496;13.456;2022-08-25T13:54:55;12.13;;;4.97;;
25758;SDS011;13604;52.496;13.456;2022-08-25T13:57:24;12.57;;;5.28;;
25758;SDS011;13604;52.496;13.456;2022-08-25T13:59:53;13.27;;;5.00;;
25758;SDS011;13604;52.496;13.456;2022-08-25T14:05:15;11.70;;;5.03;;
25758;SDS011;13604;52.496;13.456;2022-08-25T14:07:53;12.45;;;4.50;;
25758;SDS011;13604;52.496;13.456;2022-08-25T14:10:37;12.60;;;4.68;;
25758;SDS011;13604;52.496;13.456;2022-08-25T14:13:06;16.25;;;5.80;;
25758;SDS011;13604;52.496;13.456;2022-08-25T14:15:39;20.65;;;6.22;;
25758;SDS011;13604;52.496;13.456;2022-08-25T14:20:50;9.45;;;4.35;;
25758;SDS011;13604;52.496;13.456;2022-08-25T14:23:19;15.48;;;5.65;;
25758;SDS011;13604;52.496;13.456;2022-08-25T14:25:48;10.73;;;4.72;;
25758;SDS011;13604;52.496;13.456;2022-08-25T14:28:17;10.32;;;4.30;;
25758;SDS011;13604;52.496;13.456;2022-08-25T14:30:46;19.00;;;5.25;;
25758;SDS011;13604;52.496;13.456;2022-08-25T14:33:21;18.42;;;5.28;;
25758;SDS011;13604;52.496;13.456;2022-08-25T14:35:52;14.18;;;4.38;;
25758;SDS011;13604;52.496;13.456;2022-08-25T14:38:18;13.38;;;4.53;;
25758;SDS011;13604;52.496;13.456;2022-08-25T14:40:45;12.05;;;4.25;;
25758;SDS011;13604;52.496;13.456;2022-08-25T14:43:11;13.27;;;4.28;;
25758;SDS011;13604;52.496;13.456;2022-08-25T14:45:38;11.57;;;4.50;;
25758;SDS011;13604;52.496;13.456;2022-08-25T14:48:09;15.77;;;5.15;;
25758;SDS011;13604;52.496;13.456;2022-08-25T14:50:41;9.82;;;4.40;;
25758;SDS011;13604;52.496;13.456;2022-08-25T14:53:09;10.55;;;3.92;;
25758;SDS011;13604;52.496;13.456;2022-08-25T14:55:35;12.35;;;4.25;;
25758;SDS011;13604;52.496;13.456;2022-08-25T14:58:00;11.73;;;4.13;;
25758;SDS011;13604;52.496;13.456;2022-08-25T15:00:26;16.23;;;4.47;;
25758;SDS011;13604;52.496;13.456;2022-08-25T15:02:51;12.90;;;4.47;;
25758;SDS011;13604;52.496;13.456;2022-08-25T15:05:19;12.57;;;4.50;;
25758;SDS011;13604;52.496;13.456;2022-08-25T15:07:50;13.57;;;4.70;;
25758;SDS011;13604;52.496;13.456;2022-08-25T15:10:34;13.27;;;5.13;;
25758;SDS011;13604;52.496;13.456;2022-08-25T15:12:59;15.80;;;5.22;;
25758;SDS011;13604;52.496;13.456;2022-08-25T15:15:25;11.43;;;5.20;;
25758;SDS011;13604;52.496;13.456;2022-08-25T15:17:52;12.23;;;4.75;;
25758;SDS011;13604;52.496;13.456;2022-08-25T15:20:18;16.30;;;4.65;;
25758;SDS011;13604;52.496;13.456;2022-08-25T15:22:44;14.77;;;4.90;;
25758;SDS011;13604;52.496;13.456;2022-08-25T15:25:10;11.90;;;4.40;;
25758;SDS011;13604;52.496;13.456;2022-08-25T15:27:36;15.35;;;4.82;;
25758;SDS011;13604;52.496;13.456;2022-08-25T15:30:01;20.48;;;6.03;;
25758;SDS011;13604;52.496;13.456;2022-08-25T15:32:27;16.83;;;5.68;;
25758;SDS011;13604;52.496;13.456;2022-08-25T15:34:53;10.90;;;4.80;;
25758;SDS011;13604;52.496;13.456;2022-08-25T15:37:18;16.23;;;4.90;;
25758;SDS011;13604;52.496;13.456;2022-08-25T15:39:43;12.95;;;5.00;;
25758;SDS011;13604;52.496;13.456;2022-08-25T15:42:10;14.20;;;5.28;;
25758;SDS011;13604;52.496;13.456;2022-08-25T15:44:36;15.20;;;5.32;;
25758;SDS011;13604;52.496;13.456;2022-08-25T15:47:03;18.45;;;4.75;;
25758;SDS011;13604;52.496;13.456;2022-08-25T15:49:28;12.95;;;5.63;;